Time;durP1;ratioP1;P1;durP2;ratioP2;P2;SDS_P1;SDS_P2;PMS_P1;PMS_P2;Temp;Humidity;BMP_temperature;BMP_pressure;BME280_temperature;BME280_humidity;BME280_pressure;Samples;Min_cycle;Max_cycle;Signal;HPM_P1;HPM_P2
2024/01/05 00:01:21;;;;;;;2.43;2.43;;;;;;;;;;6387184;27;20300;-69
2024/01/05 00:04:25;;;;;;;2.27;2.17;;;;;;;;;;6386183;27;20293;-69
2024/01/05 00:07:30;;;;;;;2.60;2.50;;;;;;;;;;6387044;27;20240;-68
2024/01/05 00:10:33;;;;;;;3.07;2.77;;;;;;;;;;6384232;27;20292;-69
2024/01/05 00:13:37;;;;;;;2.43;2.33;;;;;;;;;;6385305;27;20288;-69
2024/01/05 00:16:43;;;;;;;2.43;2.43;;;;;;;;;;6382951;27;20241;-69
2024/01/05 00:19:47;;;;;;;2.80;2.60;;;;;;;;;;6369714;27;20305;-68
2024/01/05 00:22:51;;;;;;;2.20;2.10;;;;;;;;;;6367633;27;20589;-68
2024/01/05 00:25:55;;;;;;;2.20;2.20;;;;;;;;;;6386710;27;20288;-69
2024/01/05 00:28:59;;;;;;;2.30;2.20;;;;;;;;;;6386285;27;20287;-69
2024/01/05 00:32:05;;;;;;;2.70;2.60;;;;;;;;;;6386880;27;20285;-69
2024/01/05 00:35:09;;;;;;;2.20;2.20;;;;;;;;;;6386533;27;20292;-70
2024/01/05 00:38:13;;;;;;;2.87;2.40;;;;;;;;;;6386142;27;20294;-71
2024/01/05 00:41:17;;;;;;;2.77;2.67;;;;;;;;;;6387382;27;20284;-69
2024/01/05 00:44:21;;;;;;;2.70;2.70;;;;;;;;;;6382045;27;20294;-68
2024/01/05 00:47:26;;;;;;;3.00;2.80;;;;;;;;;;6361628;28;20302;-69
2024/01/05 00:50:30;;;;;;;2.50;2.40;;;;;;;;;;6385879;27;20288;-69
2024/01/05 00:53:34;;;;;;;2.87;2.73;;;;;;;;;;6385549;27;20323;-69
2024/01/05 00:56:38;;;;;;;2.93;2.83;;;;;;;;;;6386693;27;20297;-69
2024/01/05 00:59:42;;;;;;;2.50;2.40;;;;;;;;;;6385985;27;20298;-68
2024/01/05 01:02:48;;;;;;;2.37;2.37;;;;;;;;;;6385666;27;20561;-70
2024/01/05 01:05:52;;;;;;;2.10;2.10;;;;;;;;;;6386388;27;20287;-68
2024/01/05 01:08:55;;;;;;;2.03;1.93;;;;;;;;;;6385770;27;20291;-69
2024/01/05 01:11:59;;;;;;;2.00;1.97;;;;;;;;;;6385663;27;20298;-70
2024/01/05 01:15:04;;;;;;;1.70;1.70;;;;;;;;;;6385511;27;20280;-69
2024/01/05 01:18:09;;;;;;;2.00;2.00;;;;;;;;;;6383273;27;20288;-69
2024/01/05 01:21:14;;;;;;;2.07;2.07;;;;;;;;;;6370524;27;20304;-69
2024/01/05 01:24:18;;;;;;;2.50;2.40;;;;;;;;;;6359458;28;20446;-69
2024/01/05 01:27:22;;;;;;;2.20;2.20;;;;;;;;;;6360149;28;20297;-68
2024/01/05 01:30:26;;;;;;;2.63;2.43;;;;;;;;;;6336597;28;20289;-68
2024/01/05 01:33:31;;;;;;;2.30;2.17;;;;;;;;;;6334356;28;20297;-69
2024/01/05 01:36:36;;;;;;;2.00;2.00;;;;;;;;;;6335175;28;20290;-69
2024/01/05 01:39:40;;;;;;;2.00;1.90;;;;;;;;;;6333915;28;20446;-69
2024/01/05 01:42:45;;;;;;;2.30;2.20;;;;;;;;;;6333947;28;20308;-69
2024/01/05 01:45:49;;;;;;;2.90;2.10;;;;;;;;;;6334505;28;20301;-68
2024/01/05 01:48:55;;;;;;;2.20;2.10;;;;;;;;;;6333892;28;20421;-68
2024/01/05 01:51:59;;;;;;;2.53;1.87;;;;;;;;;;6334591;28;20284;-69
2024/01/05 01:55:03;;;;;;;2.40;2.20;;;;;;;;;;6344243;28;20521;-69
2024/01/05 01:58:07;;;;;;;2.40;2.30;;;;;;;;;;6359109;28;20563;-69
2024/01/05 02:01:11;;;;;;;1.90;1.90;;;;;;;;;;6360073;28;20292;-69
2024/01/05 02:04:19;;;;;;;2.10;2.10;;;;;;;;;;6359015;28;20361;-69
2024/01/05 02:07:23;;;;;;;2.00;1.97;;;;;;;;;;6359852;28;20310;-71
2024/01/05 02:10:27;;;;;;;1.93;1.83;;;;;;;;;;6362477;28;20299;-68
2024/01/05 02:13:31;;;;;;;1.80;1.80;;;;;;;;;;6384507;27;20302;-69
2024/01/05 02:16:35;;;;;;;2.07;2.07;;;;;;;;;;6370261;28;20445;-69
2024/01/05 02:19:41;;;;;;;2.00;2.00;;;;;;;;;;6325966;28;20298;-68
2024/01/05 02:22:48;;;;;;;2.00;2.00;;;;;;;;;;6350955;28;20569;-68
2024/01/05 02:25:54;;;;;;;2.47;2.37;;;;;;;;;;6362306;28;20294;-69
2024/01/05 02:28:59;;;;;;;2.33;2.10;;;;;;;;;;6363544;28;20301;-69
2024/01/05 02:32:03;;;;;;;2.10;2.10;;;;;;;;;;6364369;28;20289;-69
2024/01/05 02:35:08;;;;;;;2.20;2.10;;;;;;;;;;6363780;28;20289;-69
2024/01/05 02:38:12;;;;;;;3.60;2.17;;;;;;;;;;6363273;28;20302;-69
2024/01/05 02:41:18;;;;;;;2.43;2.23;;;;;;;;;;6364066;28;20292;-69
2024/01/05 02:44:22;;;;;;;2.20;2.10;;;;;;;;;;6363645;28;20571;-69
2024/01/05 02:47:26;;;;;;;2.60;2.50;;;;;;;;;;6345871;28;20305;-68
2024/01/05 02:50:30;;;;;;;2.10;2.10;;;;;;;;;;6363626;28;20293;-69
2024/01/05 02:53:34;;;;;;;2.10;2.10;;;;;;;;;;6363370;28;20452;-69
2024/01/05 02:56:39;;;;;;;2.17;2.17;;;;;;;;;;6364039;28;20376;-69
2024/01/05 02:59:44;;;;;;;2.47;2.30;;;;;;;;;;6362949;28;20326;-68
2024/01/05 03:02:48;;;;;;;2.40;2.30;;;;;;;;;;6345141;28;20344;-69
2024/01/05 03:05:51;;;;;;;2.40;2.20;;;;;;;;;;6363247;28;20470;-69
2024/01/05 03:08:55;;;;;;;1.80;1.80;;;;;;;;;;6363147;28;20338;-69
2024/01/05 03:12:01;;;;;;;2.97;2.40;;;;;;;;;;6363320;28;20355;-68
2024/01/05 03:15:06;;;;;;;4.50;2.50;;;;;;;;;;6362813;28;20293;-69
2024/01/05 03:18:10;;;;;;;2.30;2.30;;;;;;;;;;6362474;28;20285;-69
2024/01/05 03:21:14;;;;;;;2.50;2.40;;;;;;;;;;6363326;28;20305;-69
2024/01/05 03:24:18;;;;;;;2.03;2.03;;;;;;;;;;6362311;28;20294;-69
2024/01/05 03:27:23;;;;;;;2.03;1.97;;;;;;;;;;6363069;28;20297;-68
2024/01/05 03:30:27;;;;;;;2.50;2.40;;;;;;;;;;6339432;28;20290;-69
2024/01/05 03:33:31;;;;;;;2.60;2.50;;;;;;;;;;6336688;28;20290;-70
2024/01/05 03:36:36;;;;;;;2.63;2.53;;;;;;;;;;6337295;28;20301;-69
2024/01/05 03:39:40;;;;;;;2.50;2.40;;;;;;;;;;6318462;28;20662;-69
2024/01/05 03:42:45;;;;;;;2.67;2.53;;;;;;;;;;6336535;28;20302;-69
2024/01/05 03:45:49;;;;;;;2.30;2.20;;;;;;;;;;6337112;28;20294;-69
2024/01/05 03:48:53;;;;;;;2.33;2.33;;;;;;;;;;6336744;28;20289;-69
2024/01/05 03:51:57;;;;;;;2.50;2.50;;;;;;;;;;6337445;28;20295;-71
2024/01/05 03:55:01;;;;;;;2.50;2.30;;;;;;;;;;6336709;28;20295;-68
2024/01/05 03:58:07;;;;;;;2.27;2.27;;;;;;;;;;6336652;28;20424;-69
2024/01/05 04:01:11;;;;;;;2.23;2.20;;;;;;;;;;6336873;28;20480;-70
2024/01/05 04:04:15;;;;;;;2.30;2.30;;;;;;;;;;6344132;28;20294;-69
2024/01/05 04:07:20;;;;;;;2.30;2.23;;;;;;;;;;6353135;28;20302;-69
2024/01/05 04:10:23;;;;;;;2.63;2.53;;;;;;;;;;6353717;28;20547;-69
2024/01/05 04:13:29;;;;;;;2.40;2.30;;;;;;;;;;6336024;28;20309;-69
2024/01/05 04:16:32;;;;;;;2.27;2.20;;;;;;;;;;6336108;28;20250;-69
2024/01/05 04:19:37;;;;;;;2.47;2.37;;;;;;;;;;6348097;28;20297;-70
2024/01/05 04:22:41;;;;;;;2.10;2.10;;;;;;;;;;6360582;28;20285;-69
2024/01/05 04:25:45;;;;;;;2.40;2.23;;;;;;;;;;6352633;28;20302;-68
2024/01/05 04:28:50;;;;;;;2.70;2.50;;;;;;;;;;6351677;28;20285;-69
2024/01/05 04:31:54;;;;;;;2.57;2.37;;;;;;;;;;6335677;28;20291;-69
2024/01/05 04:34:58;;;;;;;2.40;2.30;;;;;;;;;;6335573;28;20291;-69
2024/01/05 04:38:02;;;;;;;4.37;2.57;;;;;;;;;;6358892;28;20484;-69
2024/01/05 04:41:06;;;;;;;2.23;2.20;;;;;;;;;;6342031;28;20483;-68
2024/01/05 04:44:13;;;;;;;2.30;2.30;;;;;;;;;;6360315;28;20293;-69
2024/01/05 04:47:17;;;;;;;2.60;2.50;;;;;;;;;;6360682;28;20294;-69
2024/01/05 04:50:21;;;;;;;2.37;2.27;;;;;;;;;;6360366;28;20601;-69
2024/01/05 04:53:25;;;;;;;2.60;2.50;;;;;;;;;;6360770;28;20313;-69
2024/01/05 04:56:29;;;;;;;2.00;2.00;;;;;;;;;;6360677;28;20318;-70
2024/01/05 04:59:34;;;;;;;3.27;2.60;;;;;;;;;;6360229;28;20574;-69
2024/01/05 05:02:38;;;;;;;2.80;2.70;;;;;;;;;;6359614;28;20297;-69
2024/01/05 05:05:42;;;;;;;2.47;2.47;;;;;;;;;;6360444;28;20313;-67
2024/01/05 05:08:46;;;;;;;4.63;2.63;;;;;;;;;;6351817;28;20292;-69
2024/01/05 05:11:50;;;;;;;2.93;2.70;;;;;;;;;;6339140;28;20292;-70
2024/01/05 05:14:56;;;;;;;2.80;2.60;;;;;;;;;;6334849;28;20287;-68
2024/01/05 05:18:00;;;;;;;3.43;2.40;;;;;;;;;;6334599;28;20290;-69
2024/01/05 05:21:05;;;;;;;2.37;2.27;;;;;;;;;;6345333;28;20296;-68
2024/01/05 05:24:09;;;;;;;2.57;2.47;;;;;;;;;;6369252;27;20447;-69
2024/01/05 05:27:13;;;;;;;2.43;2.33;;;;;;;;;;6373196;27;20297;-69
2024/01/05 05:30:18;;;;;;;2.90;2.80;;;;;;;;;;6385213;27;20285;-69
2024/01/05 05:33:23;;;;;;;2.20;2.20;;;;;;;;;;6385714;27;20303;-69
2024/01/05 05:36:27;;;;;;;3.43;2.93;;;;;;;;;;6385894;27;20312;-69
2024/01/05 05:39:31;;;;;;;2.33;2.30;;;;;;;;;;6385427;27;20300;-68
2024/01/05 05:42:35;;;;;;;2.50;2.40;;;;;;;;;;6384703;27;20307;-70
2024/01/05 05:45:41;;;;;;;2.57;2.47;;;;;;;;;;6385554;27;20288;-68
2024/01/05 05:48:45;;;;;;;2.33;2.33;;;;;;;;;;6385150;27;20441;-69
2024/01/05 05:51:49;;;;;;;2.97;2.70;;;;;;;;;;6385480;28;20292;-69
2024/01/05 05:54:53;;;;;;;2.13;2.13;;;;;;;;;;6385067;27;20288;-70
2024/01/05 05:57:57;;;;;;;2.30;2.30;;;;;;;;;;6387213;27;20288;-70
2024/01/05 06:01:03;;;;;;;2.53;2.40;;;;;;;;;;6371679;27;20589;-70
2024/01/05 06:04:07;;;;;;;2.40;2.30;;;;;;;;;;6390068;27;20300;-68
2024/01/05 06:07:12;;;;;;;2.40;2.40;;;;;;;;;;6390693;27;20290;-69
2024/01/05 06:10:16;;;;;;;2.20;2.20;;;;;;;;;;6390158;27;20384;-70
2024/01/05 06:13:19;;;;;;;2.20;2.10;;;;;;;;;;6390396;27;20292;-69
2024/01/05 06:16:25;;;;;;;2.80;2.70;;;;;;;;;;6389278;27;20284;-71
2024/01/05 06:19:29;;;;;;;2.40;2.40;;;;;;;;;;6388203;27;20619;-69
2024/01/05 06:22:33;;;;;;;2.30;2.30;;;;;;;;;;6360321;28;20288;-69
2024/01/05 06:25:36;;;;;;;2.70;2.60;;;;;;;;;;6371561;27;20268;-68
2024/01/05 06:28:40;;;;;;;2.70;2.50;;;;;;;;;;6388537;27;20295;-68
2024/01/05 06:31:46;;;;;;;2.93;2.60;;;;;;;;;;6389186;27;20307;-68
2024/01/05 06:34:50;;;;;;;2.90;2.70;;;;;;;;;;6388770;27;20288;-68
2024/01/05 06:37:54;;;;;;;2.83;2.73;;;;;;;;;;6388881;27;20352;-69
2024/01/05 06:40:58;;;;;;;3.00;2.33;;;;;;;;;;6388906;27;20341;-68
2024/01/05 06:44:02;;;;;;;2.73;2.53;;;;;;;;;;6388386;27;20298;-68
2024/01/05 06:47:07;;;;;;;2.13;2.03;;;;;;;;;;6388743;27;20293;-68
2024/01/05 06:50:11;;;;;;;2.73;2.37;;;;;;;;;;6386763;27;20482;-68
2024/01/05 06:53:15;;;;;;;2.50;2.40;;;;;;;;;;6369811;27;20449;-68
2024/01/05 06:56:19;;;;;;;2.13;2.03;;;;;;;;;;6388920;27;20285;-68
2024/01/05 06:59:26;;;;;;;2.43;2.33;;;;;;;;;;6388239;27;20301;-69
2024/01/05 07:02:31;;;;;;;2.00;2.00;;;;;;;;;;6388223;27;20288;-68
2024/01/05 07:05:36;;;;;;;2.20;2.20;;;;;;;;;;6387466;27;20285;-69
2024/01/05 07:08:40;;;;;;;2.13;2.13;;;;;;;;;;6386598;27;20285;-68
2024/01/05 07:11:44;;;;;;;2.40;2.40;;;;;;;;;;6388198;27;20315;-68
2024/01/05 07:14:48;;;;;;;2.70;2.50;;;;;;;;;;6387911;27;20296;-68
2024/01/05 07:17:53;;;;;;;2.50;2.40;;;;;;;;;;6387492;27;20290;-68
2024/01/05 07:20:58;;;;;;;2.47;2.30;;;;;;;;;;6388081;27;20292;-68
2024/01/05 07:24:02;;;;;;;2.70;2.50;;;;;;;;;;6387551;27;20291;-68
2024/01/05 07:27:06;;;;;;;2.43;2.33;;;;;;;;;;6388239;27;20292;-69
2024/01/05 07:30:11;;;;;;;3.17;2.30;;;;;;;;;;6388023;27;20286;-69
2024/01/05 07:33:17;;;;;;;2.40;2.30;;;;;;;;;;6387838;27;20301;-69
2024/01/05 07:36:21;;;;;;;2.50;2.30;;;;;;;;;;6387942;27;20288;-69
2024/01/05 07:39:25;;;;;;;2.57;2.37;;;;;;;;;;6387616;27;20311;-70
2024/01/05 07:42:30;;;;;;;2.57;2.47;;;;;;;;;;6387625;27;20299;-69
2024/01/05 07:45:35;;;;;;;2.17;1.90;;;;;;;;;;6387205;27;20280;-69
2024/01/05 07:48:41;;;;;;;3.23;2.40;;;;;;;;;;6387566;27;20300;-69
2024/01/05 07:51:45;;;;;;;2.30;2.10;;;;;;;;;;6387777;27;20303;-68
2024/01/05 07:54:50;;;;;;;2.33;2.23;;;;;;;;;;6387303;27;20288;-69
2024/01/05 07:57:53;;;;;;;2.73;2.63;;;;;;;;;;6386943;27;20285;-69
2024/01/05 08:00:57;;;;;;;2.37;2.17;;;;;;;;;;6387542;27;20567;-69
2024/01/05 08:04:03;;;;;;;2.23;2.13;;;;;;;;;;6386925;27;20460;-68
2024/01/05 08:07:07;;;;;;;2.40;2.30;;;;;;;;;;6387508;27;20316;-69
2024/01/05 08:10:11;;;;;;;2.30;2.20;;;;;;;;;;6386749;27;20299;-68
2024/01/05 08:13:15;;;;;;;2.37;2.30;;;;;;;;;;6386750;27;20295;-68
2024/01/05 08:16:19;;;;;;;2.20;2.20;;;;;;;;;;6386961;27;20295;-69
2024/01/05 08:19:24;;;;;;;2.27;2.17;;;;;;;;;;6386590;27;20612;-69
2024/01/05 08:22:28;;;;;;;2.47;2.37;;;;;;;;;;6384984;27;20291;-69
2024/01/05 08:25:32;;;;;;;2.67;2.57;;;;;;;;;;6385962;27;20292;-69
2024/01/05 08:28:36;;;;;;;2.17;2.10;;;;;;;;;;6385966;27;20316;-69
2024/01/05 08:31:40;;;;;;;2.00;2.00;;;;;;;;;;6386880;27;20244;-68
2024/01/05 08:34:46;;;;;;;2.17;2.17;;;;;;;;;;6385812;27;20308;-68
2024/01/05 08:37:50;;;;;;;2.30;2.30;;;;;;;;;;6367161;27;20581;-68
2024/01/05 08:40:53;;;;;;;2.77;2.67;;;;;;;;;;6385945;27;20379;-68
2024/01/05 08:43:57;;;;;;;2.70;2.60;;;;;;;;;;6385884;27;20288;-68
2024/01/05 08:47:02;;;;;;;2.20;2.20;;;;;;;;;;6386492;27;20288;-70
2024/01/05 08:50:08;;;;;;;2.73;2.53;;;;;;;;;;6385404;27;20299;-70
2024/01/05 08:53:12;;;;;;;2.20;2.20;;;;;;;;;;6385434;27;20378;-69
2024/01/05 08:56:17;;;;;;;2.60;2.50;;;;;;;;;;6385757;27;20288;-69
2024/01/05 08:59:20;;;;;;;2.80;2.70;;;;;;;;;;6385539;27;20536;-69
2024/01/05 09:02:24;;;;;;;3.70;3.03;;;;;;;;;;6385603;27;20303;-69
2024/01/05 09:05:29;;;;;;;2.80;2.70;;;;;;;;;;6385324;27;20296;-70
2024/01/05 09:08:34;;;;;;;2.17;2.17;;;;;;;;;;6385052;27;20291;-70
2024/01/05 09:11:39;;;;;;;2.10;2.10;;;;;;;;;;6366637;27;20455;-70
2024/01/05 09:14:43;;;;;;;2.90;2.70;;;;;;;;;;6385055;27;20297;-69
2024/01/05 09:17:47;;;;;;;2.57;2.47;;;;;;;;;;6383735;27;20320;-70
2024/01/05 09:20:53;;;;;;;2.80;2.70;;;;;;;;;;6385159;27;20303;-69
2024/01/05 09:23:56;;;;;;;2.70;2.50;;;;;;;;;;6384992;27;20304;-69
2024/01/05 09:27:02;;;;;;;2.83;2.63;;;;;;;;;;6384994;27;20283;-69
2024/01/05 09:30:07;;;;;;;2.70;2.50;;;;;;;;;;6384921;27;20419;-71
2024/01/05 09:33:12;;;;;;;3.23;2.70;;;;;;;;;;6384101;27;20288;-70
2024/01/05 09:36:18;;;;;;;2.80;2.70;;;;;;;;;;6384617;27;20288;-69
2024/01/05 09:39:22;;;;;;;3.60;3.40;;;;;;;;;;6384626;27;20285;-69
2024/01/05 09:42:27;;;;;;;3.23;3.03;;;;;;;;;;6384807;27;20297;-69
2024/01/05 09:45:31;;;;;;;3.57;3.37;;;;;;;;;;6365513;28;20299;-68
2024/01/05 09:48:36;;;;;;;4.30;4.10;;;;;;;;;;6384486;27;20281;-69
2024/01/05 09:51:52;;;;;;;3.60;3.30;;;;;;;;;;6384455;27;20284;-69
2024/01/05 09:54:56;;;;;;;3.73;3.00;;;;;;;;;;6384737;27;20295;-69
2024/01/05 09:58:00;;;;;;;3.00;2.83;;;;;;;;;;6383654;27;20296;-69
2024/01/05 10:01:07;;;;;;;2.97;2.77;;;;;;;;;;6384281;27;20300;-69
2024/01/05 10:04:11;;;;;;;3.00;2.90;;;;;;;;;;6355908;28;20301;-68
2024/01/05 10:07:16;;;;;;;4.20;3.07;;;;;;;;;;6359244;28;20313;-69
2024/01/05 10:10:20;;;;;;;2.63;2.43;;;;;;;;;;6355859;28;20368;-68
2024/01/05 10:13:24;;;;;;;3.20;2.60;;;;;;;;;;6380435;27;20285;-69
2024/01/05 10:16:34;;;;;;;2.37;2.27;;;;;;;;;;6391046;27;20240;-69
2024/01/05 10:19:39;;;;;;;2.73;2.63;;;;;;;;;;6384022;27;20316;-69
2024/01/05 10:22:46;;;;;;;2.57;2.40;;;;;;;;;;6407900;27;20314;-69
2024/01/05 10:25:51;;;;;;;2.67;2.40;;;;;;;;;;6410146;27;20299;-69
2024/01/05 10:28:55;;;;;;;2.00;2.00;;;;;;;;;;6399798;27;20285;-67
2024/01/05 10:32:14;;;;;;;2.57;2.47;;;;;;;;;;6384324;27;20297;-69
2024/01/05 10:35:24;;;;;;;1.83;1.83;;;;;;;;;;6384672;27;20281;-68
2024/01/05 10:38:32;;;;;;;2.40;2.30;;;;;;;;;;6382485;27;20301;-70
2024/01/05 10:41:37;;;;;;;1.90;1.80;;;;;;;;;;6385020;27;20306;-69
2024/01/05 10:44:41;;;;;;;2.20;2.10;;;;;;;;;;6385631;27;20592;-69
2024/01/05 10:47:47;;;;;;;1.97;1.90;;;;;;;;;;6370026;27;20297;-70
2024/01/05 10:50:51;;;;;;;1.73;1.60;;;;;;;;;;6389103;27;20280;-69
2024/01/05 10:53:58;;;;;;;2.40;2.37;;;;;;;;;;6388041;27;20603;-69
2024/01/05 10:57:03;;;;;;;2.03;1.93;;;;;;;;;;6388970;27;20292;-69
2024/01/05 11:00:09;;;;;;;2.10;1.97;;;;;;;;;;6388562;27;20458;-69
2024/01/05 11:03:14;;;;;;;2.00;2.00;;;;;;;;;;6388190;27;20296;-70
2024/01/05 11:06:19;;;;;;;2.13;2.03;;;;;;;;;;6388680;27;20562;-70
2024/01/05 11:09:30;;;;;;;2.27;2.17;;;;;;;;;;6388514;27;20287;-70
2024/01/05 11:12:45;;;;;;;2.30;2.20;;;;;;;;;;6414422;27;20283;-69
2024/01/05 11:16:04;;;;;;;2.00;2.00;;;;;;;;;;6408543;27;20280;-69
2024/01/05 11:19:23;;;;;;;2.00;2.00;;;;;;;;;;6388164;27;20293;-70
2024/01/05 11:22:30;;;;;;;2.10;2.10;;;;;;;;;;6386322;27;20293;-70
2024/01/05 11:25:36;;;;;;;2.53;2.23;;;;;;;;;;6362155;28;20301;-70
2024/01/05 11:28:40;;;;;;;3.90;2.13;;;;;;;;;;6353057;27;20292;-69
2024/01/05 11:31:50;;;;;;;2.17;2.00;;;;;;;;;;6388438;27;20311;-70
2024/01/05 11:34:54;;;;;;;2.10;2.00;;;;;;;;;;6388105;27;20294;-70
2024/01/05 11:37:58;;;;;;;4.00;2.20;;;;;;;;;;6387893;27;20287;-70
2024/01/05 11:41:16;;;;;;;2.30;2.20;;;;;;;;;;6388323;27;20289;-69
2024/01/05 11:44:33;;;;;;;1.90;1.90;;;;;;;;;;6387096;27;20300;-70
2024/01/05 11:47:41;;;;;;;2.00;1.90;;;;;;;;;;6368616;27;20309;-69
2024/01/05 11:50:45;;;;;;;2.10;1.83;;;;;;;;;;6379311;27;20289;-69
2024/01/05 11:53:49;;;;;;;2.27;2.13;;;;;;;;;;6387226;27;20476;-69
2024/01/05 11:56:59;;;;;;;4.77;2.00;;;;;;;;;;6387224;27;20285;-70
2024/01/05 12:00:03;;;;;;;1.83;1.83;;;;;;;;;;6387231;27;20299;-69
2024/01/05 12:03:08;;;;;;;2.00;1.90;;;;;;;;;;6387004;27;20297;-70
2024/01/05 12:06:13;;;;;;;2.10;2.10;;;;;;;;;;6387271;27;20473;-69
2024/01/05 12:09:18;;;;;;;2.23;2.13;;;;;;;;;;6386971;27;20296;-70
2024/01/05 12:12:25;;;;;;;2.03;2.03;;;;;;;;;;6378230;27;20289;-70
2024/01/05 12:15:29;;;;;;;1.90;1.80;;;;;;;;;;6386321;27;20297;-71
2024/01/05 12:18:34;;;;;;;2.40;2.40;;;;;;;;;;6361512;28;20305;-69
2024/01/05 12:21:43;;;;;;;2.60;2.40;;;;;;;;;;6371806;27;20292;-70
2024/01/05 12:24:47;;;;;;;2.23;2.13;;;;;;;;;;6386378;27;20317;-70
2024/01/05 12:27:53;;;;;;;2.10;2.00;;;;;;;;;;6386240;27;20281;-70
2024/01/05 12:30:57;;;;;;;2.50;2.40;;;;;;;;;;6387439;27;20289;-69
2024/01/05 12:34:02;;;;;;;2.47;2.37;;;;;;;;;;6386802;27;20375;-70
2024/01/05 12:37:07;;;;;;;2.70;2.60;;;;;;;;;;6386966;27;20297;-70
2024/01/05 12:40:12;;;;;;;2.57;2.20;;;;;;;;;;6386493;27;20288;-70
2024/01/05 12:43:18;;;;;;;2.17;2.07;;;;;;;;;;6386077;27;20302;-70
2024/01/05 12:46:23;;;;;;;2.40;2.30;;;;;;;;;;6382994;27;20292;-70
2024/01/05 12:49:27;;;;;;;2.73;2.53;;;;;;;;;;6384853;27;20292;-70
2024/01/05 12:52:36;;;;;;;2.60;2.40;;;;;;;;;;6385924;27;20243;-70
2024/01/05 12:55:39;;;;;;;3.80;2.20;;;;;;;;;;6385381;27;20261;-70
2024/01/05 12:58:46;;;;;;;2.37;2.33;;;;;;;;;;6386012;27;20311;-70
2024/01/05 13:01:58;;;;;;;2.43;2.33;;;;;;;;;;6386067;27;20525;-70
2024/01/05 13:05:27;;;;;;;4.43;2.97;;;;;;;;;;6385910;27;20294;-70
2024/01/05 13:08:34;;;;;;;2.10;2.00;;;;;;;;;;6385323;27;20293;-70
2024/01/05 13:11:38;;;;;;;2.67;2.50;;;;;;;;;;6385318;27;20285;-70
2024/01/05 13:14:44;;;;;;;2.40;2.30;;;;;;;;;;6385384;27;20298;-70
2024/01/05 13:17:49;;;;;;;1.93;1.93;;;;;;;;;;6385003;27;20310;-70
2024/01/05 13:20:53;;;;;;;2.43;2.27;;;;;;;;;;6385684;27;20308;-70
2024/01/05 13:23:58;;;;;;;2.30;2.30;;;;;;;;;;6360070;28;20294;-70
2024/01/05 13:27:02;;;;;;;2.50;2.40;;;;;;;;;;6369113;27;20356;-69
2024/01/05 13:30:10;;;;;;;2.40;2.30;;;;;;;;;;6385357;27;20298;-69
2024/01/05 13:33:17;;;;;;;2.70;2.20;;;;;;;;;;6385058;27;20280;-72
2024/01/05 13:36:21;;;;;;;2.40;2.30;;;;;;;;;;6385174;27;20367;-69
2024/01/05 13:39:27;;;;;;;3.77;2.40;;;;;;;;;;6385030;27;20290;-70
2024/01/05 13:42:31;;;;;;;2.40;2.30;;;;;;;;;;6385423;27;20443;-70
2024/01/05 13:45:38;;;;;;;3.27;2.50;;;;;;;;;;6384640;27;20291;-69
2024/01/05 13:48:42;;;;;;;2.30;2.17;;;;;;;;;;6384907;27;20293;-70
2024/01/05 13:51:45;;;;;;;2.80;2.60;;;;;;;;;;6382919;28;20489;-70
2024/01/05 13:54:49;;;;;;;2.90;2.63;;;;;;;;;;6384752;28;20344;-70
2024/01/05 13:57:54;;;;;;;2.50;2.30;;;;;;;;;;6384257;28;20288;-70
2024/01/05 14:01:03;;;;;;;3.90;2.40;;;;;;;;;;6384733;28;20286;-70
2024/01/05 14:04:08;;;;;;;2.57;2.47;;;;;;;;;;6384288;28;20492;-70
2024/01/05 14:07:12;;;;;;;2.33;2.13;;;;;;;;;;6374093;28;20294;-70
2024/01/05 14:10:16;;;;;;;2.47;2.00;;;;;;;;;;6384497;28;20285;-70
2024/01/05 14:13:20;;;;;;;3.50;2.03;;;;;;;;;;6384366;28;20291;-69
2024/01/05 14:16:25;;;;;;;1.97;1.97;;;;;;;;;;6383736;27;20280;-70
2024/01/05 14:19:29;;;;;;;2.30;1.80;;;;;;;;;;6386994;27;20298;-70
2024/01/05 14:22:33;;;;;;;1.70;1.70;;;;;;;;;;6390245;27;20293;-70
2024/01/05 14:25:38;;;;;;;1.60;1.60;;;;;;;;;;6389120;27;20561;-70
2024/01/05 14:28:43;;;;;;;1.70;1.70;;;;;;;;;;6389030;27;20509;-69
2024/01/05 14:31:49;;;;;;;2.10;2.10;;;;;;;;;;6389353;27;20301;-70
2024/01/05 14:34:52;;;;;;;1.80;1.80;;;;;;;;;;6389516;27;20451;-70
2024/01/05 14:37:57;;;;;;;2.10;2.00;;;;;;;;;;6388693;27;20292;-70
2024/01/05 14:41:04;;;;;;;2.00;1.90;;;;;;;;;;6389392;27;20289;-70
2024/01/05 14:44:08;;;;;;;2.20;1.93;;;;;;;;;;6388719;27;20292;-70
2024/01/05 14:47:13;;;;;;;1.73;1.73;;;;;;;;;;6389474;27;20308;-69
2024/01/05 14:50:17;;;;;;;2.17;2.00;;;;;;;;;;6388779;27;20281;-70
2024/01/05 14:53:21;;;;;;;2.10;2.03;;;;;;;;;;6388448;27;20300;-69
2024/01/05 14:56:25;;;;;;;1.70;1.70;;;;;;;;;;6388632;27;20293;-70
2024/01/05 14:59:29;;;;;;;2.23;2.23;;;;;;;;;;6388332;27;20293;-71
2024/01/05 15:02:34;;;;;;;2.50;2.00;;;;;;;;;;6389183;27;20280;-70
2024/01/05 15:05:38;;;;;;;1.87;1.87;;;;;;;;;;6388087;27;20293;-71
2024/01/05 15:08:42;;;;;;;1.73;1.63;;;;;;;;;;6388533;27;20568;-70
2024/01/05 15:11:46;;;;;;;1.90;1.80;;;;;;;;;;6388804;27;20301;-69
2024/01/05 15:14:50;;;;;;;1.70;1.70;;;;;;;;;;6388418;27;20284;-70
2024/01/05 15:17:55;;;;;;;1.80;1.80;;;;;;;;;;6388057;27;20290;-70
2024/01/05 15:20:59;;;;;;;2.00;1.90;;;;;;;;;;6388437;27;20302;-70
2024/01/05 15:24:03;;;;;;;1.80;1.80;;;;;;;;;;6369699;27;20302;-71
2024/01/05 15:27:07;;;;;;;2.10;2.00;;;;;;;;;;6388156;27;20315;-70
2024/01/05 15:30:12;;;;;;;1.67;1.57;;;;;;;;;;6386589;27;20300;-70
2024/01/05 15:33:18;;;;;;;2.00;1.90;;;;;;;;;;6388101;27;20325;-70
2024/01/05 15:36:23;;;;;;;2.10;2.00;;;;;;;;;;6387914;27;20293;-71
2024/01/05 15:39:28;;;;;;;1.93;1.90;;;;;;;;;;6387736;27;20295;-70
2024/01/05 15:42:32;;;;;;;2.23;2.13;;;;;;;;;;6388374;27;20314;-71
2024/01/05 15:45:36;;;;;;;2.13;2.03;;;;;;;;;;6387313;27;20388;-70
2024/01/05 15:48:41;;;;;;;2.20;2.10;;;;;;;;;;6387738;27;20295;-70
2024/01/05 15:51:47;;;;;;;2.10;2.00;;;;;;;;;;6388399;27;20363;-71
2024/01/05 15:54:51;;;;;;;3.60;2.40;;;;;;;;;;6387578;27;20297;-71
2024/01/05 15:57:55;;;;;;;2.20;2.00;;;;;;;;;;6387338;27;22731;-71
2024/01/05 16:00:59;;;;;;;2.10;2.00;;;;;;;;;;6388108;27;20338;-70
2024/01/05 16:04:05;;;;;;;2.83;2.63;;;;;;;;;;6387580;27;20293;-71
2024/01/05 16:07:09;;;;;;;3.33;3.03;;;;;;;;;;6387820;27;20331;-69
2024/01/05 16:10:13;;;;;;;2.47;2.43;;;;;;;;;;6387060;27;20293;-69
2024/01/05 16:13:18;;;;;;;2.40;2.30;;;;;;;;;;6386764;27;20292;-70
2024/01/05 16:16:24;;;;;;;2.13;2.03;;;;;;;;;;6387110;27;20290;-69
2024/01/05 16:19:30;;;;;;;3.40;2.00;;;;;;;;;;6366722;27;20573;-71
2024/01/05 16:22:34;;;;;;;2.47;2.33;;;;;;;;;;6386388;27;20281;-70
2024/01/05 16:25:37;;;;;;;2.27;2.20;;;;;;;;;;6386313;27;20277;-70
2024/01/05 16:28:41;;;;;;;2.23;2.13;;;;;;;;;;6386215;27;20309;-70
2024/01/05 16:31:45;;;;;;;2.57;2.10;;;;;;;;;;6385539;27;20449;-71
2024/01/05 16:34:51;;;;;;;1.97;1.90;;;;;;;;;;6386432;27;20296;-70
2024/01/05 16:37:55;;;;;;;2.43;2.30;;;;;;;;;;6386107;27;20583;-70
2024/01/05 16:40:59;;;;;;;2.67;2.30;;;;;;;;;;6388156;27;20404;-71
2024/01/05 16:44:03;;;;;;;3.13;2.27;;;;;;;;;;6386102;27;20285;-71
2024/01/05 16:47:08;;;;;;;2.37;1.97;;;;;;;;;;6386673;27;20297;-71
2024/01/05 16:50:14;;;;;;;2.83;2.53;;;;;;;;;;6385912;27;20288;-71
2024/01/05 16:53:18;;;;;;;2.93;2.43;;;;;;;;;;6386056;27;20297;-71
2024/01/05 16:56:27;;;;;;;2.80;2.50;;;;;;;;;;6386522;27;20292;-71
2024/01/05 16:59:32;;;;;;;2.53;2.33;;;;;;;;;;6385895;27;20542;-70
2024/01/05 17:02:36;;;;;;;2.33;2.33;;;;;;;;;;6384918;27;20304;-71
2024/01/05 17:05:44;;;;;;;2.90;2.60;;;;;;;;;;6385929;27;20297;-71
2024/01/05 17:08:48;;;;;;;2.70;2.53;;;;;;;;;;6377323;27;20292;-71
2024/01/05 17:11:52;;;;;;;2.63;2.53;;;;;;;;;;6385892;27;20301;-71
2024/01/05 17:15:00;;;;;;;2.80;2.60;;;;;;;;;;6385264;27;20293;-70
2024/01/05 17:18:05;;;;;;;2.23;2.23;;;;;;;;;;6385319;27;20291;-71
2024/01/05 17:21:12;;;;;;;2.83;2.63;;;;;;;;;;6386234;27;20297;-73
2024/01/05 17:24:16;;;;;;;2.47;2.47;;;;;;;;;;6384286;27;20294;-70
2024/01/05 17:27:20;;;;;;;2.97;2.87;;;;;;;;;;6385827;27;20292;-71
2024/01/05 17:30:24;;;;;;;5.60;2.87;;;;;;;;;;6384933;27;20351;-70
2024/01/05 17:33:28;;;;;;;3.37;2.93;;;;;;;;;;6385698;27;20292;-70
2024/01/05 17:36:39;;;;;;;2.80;2.60;;;;;;;;;;6385002;27;20304;-70
2024/01/05 17:39:43;;;;;;;3.07;2.97;;;;;;;;;;6383240;27;20356;-70
2024/01/05 17:42:47;;;;;;;3.90;3.00;;;;;;;;;;6385162;27;20482;-70
2024/01/05 17:45:51;;;;;;;3.60;3.30;;;;;;;;;;6385030;27;20283;-71
2024/01/05 17:48:55;;;;;;;3.30;3.07;;;;;;;;;;6385689;27;20288;-72
2024/01/05 17:52:01;;;;;;;3.20;3.00;;;;;;;;;;6384968;27;20315;-70
2024/01/05 17:55:05;;;;;;;3.30;3.10;;;;;;;;;;6383888;28;20385;-70
2024/01/05 17:58:09;;;;;;;4.07;3.67;;;;;;;;;;6384643;28;20307;-70
2024/01/05 18:01:13;;;;;;;2.70;2.60;;;;;;;;;;6385183;28;20306;-70
2024/01/05 18:04:18;;;;;;;3.17;2.97;;;;;;;;;;6384194;28;20292;-70
2024/01/05 18:07:23;;;;;;;3.30;3.10;;;;;;;;;;6384937;28;20296;-70
2024/01/05 18:10:27;;;;;;;3.10;2.90;;;;;;;;;;6383280;27;20478;-70
2024/01/05 18:13:31;;;;;;;2.77;2.53;;;;;;;;;;6385265;28;20244;-71
2024/01/05 18:16:36;;;;;;;2.93;2.63;;;;;;;;;;6384250;27;20307;-70
2024/01/05 18:19:42;;;;;;;2.67;2.50;;;;;;;;;;6383543;28;20293;-69
2024/01/05 18:22:47;;;;;;;2.67;2.57;;;;;;;;;;6376946;28;20291;-69
2024/01/05 18:25:51;;;;;;;2.67;2.57;;;;;;;;;;6365354;28;20288;-71
2024/01/05 18:28:55;;;;;;;3.07;2.90;;;;;;;;;;6384989;28;20289;-70